sensor_id;sensor_type;location;lat;lon;timestamp;temperature;humidity
13898;DHT22;7019;50.766;4.474;2022-09-12T00:01:05;13.30;99.90
13898;DHT22;7019;50.766;4.474;2022-09-12T00:03:32;13.30;99.90
13898;DHT22;7019;50.766;4.474;2022-09-12T00:05:59;13.20;99.90
13898;DHT22;7019;50.766;4.474;2022-09-12T00:08:27;13.20;99.90
13898;DHT22;7019;50.766;4.474;2022-09-12T00:10:54;13.20;99.90
13898;DHT22;7019;50.766;4.474;2022-09-12T00:13:21;13.20;99.90
13898;DHT22;7019;50.766;4.474;2022-09-12T00:15:48;13.10;99.90
13898;DHT22;7019;50.766;4.474;2022-09-12T00:18:15;13.10;99.90
13898;DHT22;7019;50.766;4.474;2022-09-12T00:20:44;13.10;99.90
13898;DHT22;7019;50.766;4.474;2022-09-12T00:23:12;13.10;99.90
13898;DHT22;7019;50.766;4.474;2022-09-12T00:25:45;13.10;99.90
13898;DHT22;7019;50.766;4.474;2022-09-12T00:28:13;13.10;99.90
13898;DHT22;7019;50.766;4.474;2022-09-12T00:30:41;13.10;99.90
13898;DHT22;7019;50.766;4.474;2022-09-12T00:33:08;13.10;99.90
13898;DHT22;7019;50.766;4.474;2022-09-12T00:35:40;13.10;99.90
13898;DHT22;7019;50.766;4.474;2022-09-12T00:38:09;13.10;99.90
13898;DHT22;7019;50.766;4.474;2022-09-12T00:40:36;13.10;99.90
13898;DHT22;7019;50.766;4.474;2022-09-12T00:43:04;13.10;99.90
13898;DHT22;7019;50.766;4.474;2022-09-12T00:45:32;13.00;99.90
13898;DHT22;7019;50.766;4.474;2022-09-12T00:48:01;13.00;99.90
13898;DHT22;7019;50.766;4.474;2022-09-12T00:50:32;13.00;99.90
13898;DHT22;7019;50.766;4.474;2022-09-12T00:53:03;13.00;99.90
13898;DHT22;7019;50.766;4.474;2022-09-12T00:55:34;13.00;99.90
13898;DHT22;7019;50.766;4.474;2022-09-12T00:58:08;12.90;99.90
13898;DHT22;7019;50.766;4.474;2022-09-12T01:00:36;12.90;99.90
13898;DHT22;7019;50.766;4.474;2022-09-12T01:03:04;12.90;99.90
13898;DHT22;7019;50.766;4.474;2022-09-12T01:05:35;12.90;99.90
13898;DHT22;7019;50.766;4.474;2022-09-12T01:08:04;12.90;99.90
13898;DHT22;7019;50.766;4.474;2022-09-12T01:10:34;12.90;99.90
13898;DHT22;7019;50.766;4.474;2022-09-12T01:13:06;12.90;99.90
13898;DHT22;7019;50.766;4.474;2022-09-12T01:15:33;12.80;99.90
13898;DHT22;7019;50.766;4.474;2022-09-12T01:18:12;12.80;99.90
13898;DHT22;7019;50.766;4.474;2022-09-12T01:21:03;12.70;99.90
13898;DHT22;7019;50.766;4.474;2022-09-12T01:33:07;12.70;99.90
13898;DHT22;7019;50.766;4.474;2022-09-12T01:35:44;12.70;99.90
13898;DHT22;7019;50.766;4.474;2022-09-12T01:38:21;12.70;99.90
13898;DHT22;7019;50.766;4.474;2022-09-12T01:40:58;12.70;99.90
13898;DHT22;7019;50.766;4.474;2022-09-12T01:43:32;12.70;99.90
13898;DHT22;7019;50.766;4.474;2022-09-12T01:46:05;12.70;99.90
13898;DHT22;7019;50.766;4.474;2022-09-12T01:48:39;12.70;99.90
13898;DHT22;7019;50.766;4.474;2022-09-12T01:51:10;12.70;99.90
13898;DHT22;7019;50.766;4.474;2022-09-12T01:53:43;12.70;99.90
13898;DHT22;7019;50.766;4.474;2022-09-12T01:56:14;12.70;99.90
13898;DHT22;7019;50.766;4.474;2022-09-12T01:58:49;12.70;99.90
13898;DHT22;7019;50.766;4.474;2022-09-12T02:01:19;12.60;99.90
13898;DHT22;7019;50.766;4.474;2022-09-12T02:03:52;12.60;99.90
13898;DHT22;7019;50.766;4.474;2022-09-12T02:06:24;12.60;99.90
13898;DHT22;7019;50.766;4.474;2022-09-12T02:08:53;12.60;99.90
13898;DHT22;7019;50.766;4.474;2022-09-12T02:11:23;12.70;99.90
13898;DHT22;7019;50.766;4.474;2022-09-12T02:13:55;12.60;99.90
13898;DHT22;7019;50.766;4.474;2022-09-12T02:16:29;12.70;99.90
13898;DHT22;7019;50.766;4.474;2022-09-12T02:19:02;12.70;99.90
13898;DHT22;7019;50.766;4.474;2022-09-12T02:21:31;12.60;99.90
13898;DHT22;7019;50.766;4.474;2022-09-12T02:24:01;12.60;99.90
13898;DHT22;7019;50.766;4.474;2022-09-12T02:26:33;12.50;99.90
13898;DHT22;7019;50.766;4.474;2022-09-12T02:29:01;12.60;99.90
13898;DHT22;7019;50.766;4.474;2022-09-12T02:31:33;12.60;99.90
13898;DHT22;7019;50.766;4.474;2022-09-12T02:34:09;12.50;99.90
13898;DHT22;7019;50.766;4.474;2022-09-12T02:36:47;12.50;99.90
13898;DHT22;7019;50.766;4.474;2022-09-12T02:39:16;12.30;99.90
13898;DHT22;7019;50.766;4.474;2022-09-12T02:41:46;12.10;99.90
13898;DHT22;7019;50.766;4.474;2022-09-12T02:44:13;12.00;99.90
13898;DHT22;7019;50.766;4.474;2022-09-12T02:46:43;12.00;99.90
13898;DHT22;7019;50.766;4.474;2022-09-12T02:49:14;12.10;99.90
13898;DHT22;7019;50.766;4.474;2022-09-12T02:51:42;12.20;99.90
13898;DHT22;7019;50.766;4.474;2022-09-12T02:54:10;12.20;99.90
13898;DHT22;7019;50.766;4.474;2022-09-12T02:56:41;12.30;99.90
13898;DHT22;7019;50.766;4.474;2022-09-12T02:59:11;12.30;99.90
13898;DHT22;7019;50.766;4.474;2022-09-12T03:04:52;12.30;99.90
13898;DHT22;7019;50.766;4.474;2022-09-12T03:07:31;12.30;99.90
13898;DHT22;7019;50.766;4.474;2022-09-12T03:10:06;12.30;99.90
13898;DHT22;7019;50.766;4.474;2022-09-12T03:12:46;12.20;99.90
13898;DHT22;7019;50.766;4.474;2022-09-12T03:15:27;12.00;99.90
13898;DHT22;7019;50.766;4.474;2022-09-12T03:18:07;11.90;99.90
13898;DHT22;7019;50.766;4.474;2022-09-12T03:20:44;11.80;99.90
13898;DHT22;7019;50.766;4.474;2022-09-12T03:23:18;11.70;99.90
13898;DHT22;7019;50.766;4.474;2022-09-12T03:25:52;11.60;99.90
13898;DHT22;7019;50.766;4.474;2022-09-12T03:28:22;11.60;99.90
13898;DHT22;7019;50.766;4.474;2022-09-12T03:30:49;11.60;99.90
13898;DHT22;7019;50.766;4.474;2022-09-12T03:33:20;11.70;99.90
13898;DHT22;7019;50.766;4.474;2022-09-12T03:35:49;11.80;99.90
13898;DHT22;7019;50.766;4.474;2022-09-12T03:38:17;11.90;99.90
13898;DHT22;7019;50.766;4.474;2022-09-12T03:40:44;11.90;99.90
13898;DHT22;7019;50.766;4.474;2022-09-12T03:43:12;12.00;99.90
13898;DHT22;7019;50.766;4.474;2022-09-12T03:45:40;12.00;99.90
13898;DHT22;7019;50.766;4.474;2022-09-12T03:48:07;11.90;99.90
13898;DHT22;7019;50.766;4.474;2022-09-12T03:50:34;11.80;99.90
13898;DHT22;7019;50.766;4.474;2022-09-12T03:53:03;11.80;99.90
13898;DHT22;7019;50.766;4.474;2022-09-12T03:55:30;11.80;99.90
13898;DHT22;7019;50.766;4.474;2022-09-12T03:57:57;11.80;99.90
13898;DHT22;7019;50.766;4.474;2022-09-12T04:00:24;11.90;99.90
13898;DHT22;7019;50.766;4.474;2022-09-12T04:02:55;11.90;99.90
13898;DHT22;7019;50.766;4.474;2022-09-12T04:05:22;11.90;99.90
13898;DHT22;7019;50.766;4.474;2022-09-12T04:07:50;11.90;99.90
13898;DHT22;7019;50.766;4.474;2022-09-12T04:10:18;11.90;99.90
13898;DHT22;7019;50.766;4.474;2022-09-12T04:12:45;12.00;99.90
13898;DHT22;7019;50.766;4.474;2022-09-12T04:15:13;12.00;99.90
13898;DHT22;7019;50.766;4.474;2022-09-12T04:17:40;12.00;99.90
13898;DHT22;7019;50.766;4.474;2022-09-12T04:20:07;12.00;99.90
13898;DHT22;7019;50.766;4.474;2022-09-12T04:22:34;11.90;99.90
13898;DHT22;7019;50.766;4.474;2022-09-12T04:25:01;11.90;99.90
13898;DHT22;7019;50.766;4.474;2022-09-12T04:27:29;11.90;99.90
13898;DHT22;7019;50.766;4.474;2022-09-12T04:29:57;11.90;99.90
13898;DHT22;7019;50.766;4.474;2022-09-12T04:32:24;11.90;99.90
13898;DHT22;7019;50.766;4.474;2022-09-12T04:34:51;11.90;99.90
13898;DHT22;7019;50.766;4.474;2022-09-12T04:37:18;11.80;99.90
13898;DHT22;7019;50.766;4.474;2022-09-12T04:39:45;11.60;99.90
13898;DHT22;7019;50.766;4.474;2022-09-12T04:42:14;11.50;99.90
13898;DHT22;7019;50.766;4.474;2022-09-12T04:44:42;11.40;99.90
13898;DHT22;7019;50.766;4.474;2022-09-12T04:47:09;11.40;99.90
13898;DHT22;7019;50.766;4.474;2022-09-12T04:49:36;11.50;99.90
13898;DHT22;7019;50.766;4.474;2022-09-12T04:52:03;11.50;99.90
13898;DHT22;7019;50.766;4.474;2022-09-12T04:54:30;11.60;99.90
13898;DHT22;7019;50.766;4.474;2022-09-12T04:56:58;11.60;99.90
13898;DHT22;7019;50.766;4.474;2022-09-12T04:59:25;11.60;99.90
13898;DHT22;7019;50.766;4.474;2022-09-12T05:01:53;11.50;99.90
13898;DHT22;7019;50.766;4.474;2022-09-12T05:04:20;11.30;99.90
13898;DHT22;7019;50.766;4.474;2022-09-12T05:06:47;11.30;99.90
13898;DHT22;7019;50.766;4.474;2022-09-12T05:09:14;11.20;99.90
13898;DHT22;7019;50.766;4.474;2022-09-12T05:11:42;11.30;99.90
13898;DHT22;7019;50.766;4.474;2022-09-12T05:14:10;11.30;99.90
13898;DHT22;7019;50.766;4.474;2022-09-12T05:16:38;11.40;99.90
13898;DHT22;7019;50.766;4.474;2022-09-12T05:19:08;11.50;99.90
13898;DHT22;7019;50.766;4.474;2022-09-12T05:21:36;11.60;99.90
13898;DHT22;7019;50.766;4.474;2022-09-12T05:24:04;11.60;99.90
13898;DHT22;7019;50.766;4.474;2022-09-12T05:26:31;11.60;99.90
13898;DHT22;7019;50.766;4.474;2022-09-12T05:28:59;11.60;99.90
13898;DHT22;7019;50.766;4.474;2022-09-12T05:31:27;11.60;99.90
13898;DHT22;7019;50.766;4.474;2022-09-12T05:33:54;11.60;99.90
13898;DHT22;7019;50.766;4.474;2022-09-12T05:36:25;11.60;99.90
13898;DHT22;7019;50.766;4.474;2022-09-12T05:38:52;11.70;99.90
13898;DHT22;7019;50.766;4.474;2022-09-12T05:41:22;11.70;99.90
13898;DHT22;7019;50.766;4.474;2022-09-12T05:43:51;11.70;99.90
13898;DHT22;7019;50.766;4.474;2022-09-12T05:46:20;11.70;99.90
13898;DHT22;7019;50.766;4.474;2022-09-12T05:48:48;11.70;99.90
13898;DHT22;7019;50.766;4.474;2022-09-12T05:51:17;11.70;99.90
13898;DHT22;7019;50.766;4.474;2022-09-12T05:53:48;11.80;99.90
13898;DHT22;7019;50.766;4.474;2022-09-12T05:56:16;11.80;99.90
13898;DHT22;7019;50.766;4.474;2022-09-12T05:58:45;11.80;99.90
13898;DHT22;7019;50.766;4.474;2022-09-12T06:01:14;11.90;99.90
13898;DHT22;7019;50.766;4.474;2022-09-12T06:03:42;11.80;99.90
13898;DHT22;7019;50.766;4.474;2022-09-12T06:06:11;11.80;99.90
13898;DHT22;7019;50.766;4.474;2022-09-12T06:08:39;11.80;99.90
13898;DHT22;7019;50.766;4.474;2022-09-12T06:11:09;11.80;99.90
13898;DHT22;7019;50.766;4.474;2022-09-12T06:13:38;11.80;99.90
13898;DHT22;7019;50.766;4.474;2022-09-12T06:16:07;11.80;99.90
13898;DHT22;7019;50.766;4.474;2022-09-12T06:18:35;11.80;99.90
13898;DHT22;7019;50.766;4.474;2022-09-12T06:21:03;11.80;99.90
13898;DHT22;7019;50.766;4.474;2022-09-12T06:23:30;11.80;99.90
13898;DHT22;7019;50.766;4.474;2022-09-12T06:25:59;11.70;99.90
13898;DHT22;7019;50.766;4.474;2022-09-12T06:28:28;11.70;99.90
13898;DHT22;7019;50.766;4.474;2022-09-12T06:31:01;11.70;99.90
13898;DHT22;7019;50.766;4.474;2022-09-12T06:33:30;11.80;99.90
13898;DHT22;7019;50.766;4.474;2022-09-12T06:36:02;12.00;99.90
13898;DHT22;7019;50.766;4.474;2022-09-12T06:38:30;12.10;99.90
13898;DHT22;7019;50.766;4.474;2022-09-12T06:40:57;12.20;99.90
13898;DHT22;7019;50.766;4.474;2022-09-12T06:43:25;12.20;99.90
13898;DHT22;7019;50.766;4.474;2022-09-12T06:45:54;12.30;99.90
13898;DHT22;7019;50.766;4.474;2022-09-12T06:48:21;12.30;99.90
13898;DHT22;7019;50.766;4.474;2022-09-12T06:50:55;12.40;99.90
13898;DHT22;7019;50.766;4.474;2022-09-12T06:53:27;12.40;99.90
13898;DHT22;7019;50.766;4.474;2022-09-12T06:55:55;12.50;99.90
13898;DHT22;7019;50.766;4.474;2022-09-12T06:58:23;12.50;99.90
13898;DHT22;7019;50.766;4.474;2022-09-12T07:00:50;12.60;99.90
13898;DHT22;7019;50.766;4.474;2022-09-12T07:03:18;12.70;99.90
13898;DHT22;7019;50.766;4.474;2022-09-12T07:05:46;12.80;99.90
13898;DHT22;7019;50.766;4.474;2022-09-12T07:08:14;12.90;99.90
13898;DHT22;7019;50.766;4.474;2022-09-12T07:10:41;12.90;99.90
13898;DHT22;7019;50.766;4.474;2022-09-12T07:13:08;13.00;99.90
13898;DHT22;7019;50.766;4.474;2022-09-12T07:15:35;13.10;99.90
13898;DHT22;7019;50.766;4.474;2022-09-12T07:18:02;13.20;99.90
13898;DHT22;7019;50.766;4.474;2022-09-12T07:20:31;13.30;99.90
13898;DHT22;7019;50.766;4.474;2022-09-12T07:22:59;13.50;99.90
13898;DHT22;7019;50.766;4.474;2022-09-12T07:25:26;13.70;99.90
13898;DHT22;7019;50.766;4.474;2022-09-12T07:27:53;13.80;99.90
13898;DHT22;7019;50.766;4.474;2022-09-12T07:30:20;14.20;99.90
13898;DHT22;7019;50.766;4.474;2022-09-12T07:32:51;14.90;99.90
13898;DHT22;7019;50.766;4.474;2022-09-12T07:35:18;15.70;99.90
13898;DHT22;7019;50.766;4.474;2022-09-12T07:37:47;16.40;99.90
13898;DHT22;7019;50.766;4.474;2022-09-12T07:40:14;17.10;99.90
13898;DHT22;7019;50.766;4.474;2022-09-12T07:42:41;17.70;99.90
13898;DHT22;7019;50.766;4.474;2022-09-12T07:45:09;18.30;99.90
13898;DHT22;7019;50.766;4.474;2022-09-12T07:47:36;18.80;99.90
13898;DHT22;7019;50.766;4.474;2022-09-12T07:50:05;19.00;99.90
13898;DHT22;7019;50.766;4.474;2022-09-12T07:52:32;19.40;99.90
13898;DHT22;7019;50.766;4.474;2022-09-12T07:55:01;19.60;99.90
13898;DHT22;7019;50.766;4.474;2022-09-12T07:57:28;19.90;99.90
13898;DHT22;7019;50.766;4.474;2022-09-12T07:59:55;20.00;99.90
13898;DHT22;7019;50.766;4.474;2022-09-12T08:02:22;19.90;99.90
13898;DHT22;7019;50.766;4.474;2022-09-12T08:04:48;19.80;99.90
13898;DHT22;7019;50.766;4.474;2022-09-12T08:07:16;19.80;99.90
13898;DHT22;7019;50.766;4.474;2022-09-12T08:09:44;19.80;99.90
13898;DHT22;7019;50.766;4.474;2022-09-12T08:12:12;19.90;99.90
13898;DHT22;7019;50.766;4.474;2022-09-12T08:14:40;19.80;99.90
13898;DHT22;7019;50.766;4.474;2022-09-12T08:17:07;20.00;99.90
13898;DHT22;7019;50.766;4.474;2022-09-12T08:19:37;20.10;99.90
13898;DHT22;7019;50.766;4.474;2022-09-12T08:22:04;20.30;99.90
13898;DHT22;7019;50.766;4.474;2022-09-12T08:24:31;20.60;99.90
13898;DHT22;7019;50.766;4.474;2022-09-12T08:26:58;20.60;99.90
13898;DHT22;7019;50.766;4.474;2022-09-12T08:29:27;20.60;99.90
13898;DHT22;7019;50.766;4.474;2022-09-12T08:31:54;20.90;99.90
13898;DHT22;7019;50.766;4.474;2022-09-12T08:34:21;21.40;99.90
13898;DHT22;7019;50.766;4.474;2022-09-12T08:36:49;21.70;99.90
13898;DHT22;7019;50.766;4.474;2022-09-12T08:39:22;22.00;99.90
13898;DHT22;7019;50.766;4.474;2022-09-12T08:41:58;22.10;99.90
13898;DHT22;7019;50.766;4.474;2022-09-12T08:44:52;21.90;99.90
13898;DHT22;7019;50.766;4.474;2022-09-12T08:47:24;21.90;99.90
13898;DHT22;7019;50.766;4.474;2022-09-12T08:49:58;22.00;99.90
13898;DHT22;7019;50.766;4.474;2022-09-12T08:52:30;21.90;99.90
13898;DHT22;7019;50.766;4.474;2022-09-12T08:55:00;21.80;99.90
13898;DHT22;7019;50.766;4.474;2022-09-12T08:57:27;21.80;99.90
13898;DHT22;7019;50.766;4.474;2022-09-12T08:59:55;22.20;99.90
13898;DHT22;7019;50.766;4.474;2022-09-12T09:05:36;22.90;99.90
13898;DHT22;7019;50.766;4.474;2022-09-12T09:08:19;23.30;99.90
13898;DHT22;7019;50.766;4.474;2022-09-12T09:10:52;23.30;99.90
13898;DHT22;7019;50.766;4.474;2022-09-12T09:13:41;23.50;99.90
13898;DHT22;7019;50.766;4.474;2022-09-12T09:16:33;23.80;99.90
13898;DHT22;7019;50.766;4.474;2022-09-12T09:19:04;24.00;99.90
13898;DHT22;7019;50.766;4.474;2022-09-12T09:21:36;24.40;99.90
13898;DHT22;7019;50.766;4.474;2022-09-12T09:24:05;24.40;99.90
13898;DHT22;7019;50.766;4.474;2022-09-12T09:26:41;24.60;99.90
13898;DHT22;7019;50.766;4.474;2022-09-12T09:29:15;24.60;99.90
13898;DHT22;7019;50.766;4.474;2022-09-12T09:31:47;24.70;99.90
13898;DHT22;7019;50.766;4.474;2022-09-12T09:34:18;24.40;99.90
13898;DHT22;7019;50.766;4.474;2022-09-12T09:36:50;24.30;99.90
13898;DHT22;7019;50.766;4.474;2022-09-12T09:39:33;24.90;99.90
13898;DHT22;7019;50.766;4.474;2022-09-12T09:42:12;24.90;99.90
13898;DHT22;7019;50.766;4.474;2022-09-12T09:44:43;25.10;99.90
13898;DHT22;7019;50.766;4.474;2022-09-12T09:47:17;25.00;99.90
13898;DHT22;7019;50.766;4.474;2022-09-12T09:49:44;25.10;99.90
13898;DHT22;7019;50.766;4.474;2022-09-12T09:52:14;24.90;99.90
13898;DHT22;7019;50.766;4.474;2022-09-12T09:54:46;24.70;99.90
13898;DHT22;7019;50.766;4.474;2022-09-12T09:57:37;25.10;99.90
13898;DHT22;7019;50.766;4.474;2022-09-12T10:00:24;25.50;99.90
13898;DHT22;7019;50.766;4.474;2022-09-12T10:03:02;25.70;99.90
13898;DHT22;7019;50.766;4.474;2022-09-12T10:05:32;25.50;99.90
13898;DHT22;7019;50.766;4.474;2022-09-12T10:08:08;25.50;99.90
13898;DHT22;7019;50.766;4.474;2022-09-12T10:10:35;25.60;99.90
13898;DHT22;7019;50.766;4.474;2022-09-12T10:13:07;25.60;99.90
13898;DHT22;7019;50.766;4.474;2022-09-12T10:15:35;25.80;99.90
13898;DHT22;7019;50.766;4.474;2022-09-12T10:18:04;25.40;99.90
13898;DHT22;7019;50.766;4.474;2022-09-12T10:20:34;25.60;99.90
13898;DHT22;7019;50.766;4.474;2022-09-12T10:23:20;25.60;99.90
13898;DHT22;7019;50.766;4.474;2022-09-12T10:25:55;25.60;99.90
13898;DHT22;7019;50.766;4.474;2022-09-12T10:28:28;25.10;99.90
13898;DHT22;7019;50.766;4.474;2022-09-12T10:30:57;25.50;99.90
13898;DHT22;7019;50.766;4.474;2022-09-12T10:33:39;25.60;99.90
13898;DHT22;7019;50.766;4.474;2022-09-12T10:36:08;25.90;99.90
13898;DHT22;7019;50.766;4.474;2022-09-12T10:38:35;25.70;99.90
13898;DHT22;7019;50.766;4.474;2022-09-12T10:41:04;25.80;99.90
13898;DHT22;7019;50.766;4.474;2022-09-12T10:43:35;25.60;99.90
13898;DHT22;7019;50.766;4.474;2022-09-12T10:46:26;25.70;99.90
13898;DHT22;7019;50.766;4.474;2022-09-12T10:49:18;25.60;99.90
13898;DHT22;7019;50.766;4.474;2022-09-12T10:51:46;25.50;99.90
13898;DHT22;7019;50.766;4.474;2022-09-12T10:54:16;25.70;99.90
13898;DHT22;7019;50.766;4.474;2022-09-12T10:59:44;25.70;99.90
13898;DHT22;7019;50.766;4.474;2022-09-12T11:02:26;25.90;99.90
13898;DHT22;7019;50.766;4.474;2022-09-12T11:05:01;25.70;99.90
13898;DHT22;7019;50.766;4.474;2022-09-12T11:07:41;25.40;99.90
13898;DHT22;7019;50.766;4.474;2022-09-12T11:10:17;25.60;99.90
13898;DHT22;7019;50.766;4.474;2022-09-12T11:12:52;25.80;99.90
13898;DHT22;7019;50.766;4.474;2022-09-12T11:15:44;25.70;99.90
13898;DHT22;7019;50.766;4.474;2022-09-12T11:18:31;25.80;99.90
13898;DHT22;7019;50.766;4.474;2022-09-12T11:21:11;25.90;99.90
13898;DHT22;7019;50.766;4.474;2022-09-12T11:24:02;25.70;99.90
13898;DHT22;7019;50.766;4.474;2022-09-12T11:26:52;25.30;99.90
13898;DHT22;7019;50.766;4.474;2022-09-12T11:29:33;25.60;99.90
13898;DHT22;7019;50.766;4.474;2022-09-12T11:32:30;25.60;99.90
13898;DHT22;7019;50.766;4.474;2022-09-12T11:35:06;25.70;99.90
13898;DHT22;7019;50.766;4.474;2022-09-12T11:40:42;26.00;99.90
13898;DHT22;7019;50.766;4.474;2022-09-12T11:43:25;25.90;99.90
13898;DHT22;7019;50.766;4.474;2022-09-12T11:45:57;25.70;99.90
13898;DHT22;7019;50.766;4.474;2022-09-12T11:48:35;25.90;99.90
13898;DHT22;7019;50.766;4.474;2022-09-12T11:51:23;26.20;99.90
13898;DHT22;7019;50.766;4.474;2022-09-12T11:54:11;26.50;99.90
13898;DHT22;7019;50.766;4.474;2022-09-12T11:56:45;26.40;99.90
13898;DHT22;7019;50.766;4.474;2022-09-12T11:59:28;26.20;99.90
13898;DHT22;7019;50.766;4.474;2022-09-12T12:01:58;26.40;99.90
13898;DHT22;7019;50.766;4.474;2022-09-12T12:04:34;26.30;99.90
13898;DHT22;7019;50.766;4.474;2022-09-12T12:07:06;26.40;99.90
13898;DHT22;7019;50.766;4.474;2022-09-12T12:09:35;26.40;99.90
13898;DHT22;7019;50.766;4.474;2022-09-12T12:12:07;26.70;99.90
13898;DHT22;7019;50.766;4.474;2022-09-12T12:14:42;26.80;99.90
13898;DHT22;7019;50.766;4.474;2022-09-12T12:17:14;26.70;99.90
13898;DHT22;7019;50.766;4.474;2022-09-12T12:19:41;26.80;99.90
13898;DHT22;7019;50.766;4.474;2022-09-12T12:22:15;26.60;99.90
13898;DHT22;7019;50.766;4.474;2022-09-12T12:25:06;26.60;99.90
13898;DHT22;7019;50.766;4.474;2022-09-12T12:27:50;26.70;99.90
13898;DHT22;7019;50.766;4.474;2022-09-12T12:33:51;26.90;99.90
13898;DHT22;7019;50.766;4.474;2022-09-12T12:36:36;27.10;99.90
13898;DHT22;7019;50.766;4.474;2022-09-12T12:45:56;26.70;99.90
13898;DHT22;7019;50.766;4.474;2022-09-12T12:48:25;26.60;99.90
13898;DHT22;7019;50.766;4.474;2022-09-12T12:50:53;26.70;99.90
13898;DHT22;7019;50.766;4.474;2022-09-12T12:53:22;26.70;99.90
13898;DHT22;7019;50.766;4.474;2022-09-12T12:55:51;26.70;99.90
13898;DHT22;7019;50.766;4.474;2022-09-12T12:58:31;26.80;99.90
13898;DHT22;7019;50.766;4.474;2022-09-12T13:01:09;26.60;99.90
13898;DHT22;7019;50.766;4.474;2022-09-12T13:03:39;26.30;99.90
13898;DHT22;7019;50.766;4.474;2022-09-12T13:06:08;26.40;99.90
13898;DHT22;7019;50.766;4.474;2022-09-12T13:08:55;26.70;99.90
13898;DHT22;7019;50.766;4.474;2022-09-12T13:11:30;26.80;99.90
13898;DHT22;7019;50.766;4.474;2022-09-12T13:14:00;26.90;99.90
13898;DHT22;7019;50.766;4.474;2022-09-12T13:16:34;26.80;99.90
13898;DHT22;7019;50.766;4.474;2022-09-12T13:19:03;26.70;99.90
13898;DHT22;7019;50.766;4.474;2022-09-12T13:21:31;26.70;99.90
13898;DHT22;7019;50.766;4.474;2022-09-12T13:23:59;26.70;99.90
13898;DHT22;7019;50.766;4.474;2022-09-12T13:26:27;26.50;99.90
13898;DHT22;7019;50.766;4.474;2022-09-12T13:29:09;26.50;99.90
13898;DHT22;7019;50.766;4.474;2022-09-12T13:31:38;26.30;99.90
13898;DHT22;7019;50.766;4.474;2022-09-12T13:34:07;26.30;99.90
13898;DHT22;7019;50.766;4.474;2022-09-12T13:37:11;26.30;99.90
13898;DHT22;7019;50.766;4.474;2022-09-12T13:39:46;26.30;99.90
13898;DHT22;7019;50.766;4.474;2022-09-12T13:42:37;26.30;99.90
13898;DHT22;7019;50.766;4.474;2022-09-12T13:45:10;26.30;99.90
13898;DHT22;7019;50.766;4.474;2022-09-12T13:47:42;26.40;99.90
13898;DHT22;7019;50.766;4.474;2022-09-12T13:50:15;26.20;99.90
13898;DHT22;7019;50.766;4.474;2022-09-12T13:52:47;26.20;99.90
13898;DHT22;7019;50.766;4.474;2022-09-12T13:55:27;26.20;99.90
13898;DHT22;7019;50.766;4.474;2022-09-12T13:57:58;26.20;99.90
13898;DHT22;7019;50.766;4.474;2022-09-12T14:00:25;26.40;99.90
13898;DHT22;7019;50.766;4.474;2022-09-12T14:02:54;26.30;99.90
13898;DHT22;7019;50.766;4.474;2022-09-12T14:05:37;26.20;99.90
13898;DHT22;7019;50.766;4.474;2022-09-12T14:08:07;26.10;99.90
13898;DHT22;7019;50.766;4.474;2022-09-12T14:10:37;26.10;99.90
13898;DHT22;7019;50.766;4.474;2022-09-12T14:13:11;26.10;99.90
13898;DHT22;7019;50.766;4.474;2022-09-12T14:15:40;26.20;99.90
13898;DHT22;7019;50.766;4.474;2022-09-12T14:18:22;26.20;99.90
13898;DHT22;7019;50.766;4.474;2022-09-12T14:20:50;26.20;99.90
13898;DHT22;7019;50.766;4.474;2022-09-12T14:23:25;26.10;99.90
13898;DHT22;7019;50.766;4.474;2022-09-12T14:25:54;26.10;99.90
13898;DHT22;7019;50.766;4.474;2022-09-12T14:28:24;26.10;99.90
13898;DHT22;7019;50.766;4.474;2022-09-12T14:30:58;26.30;99.90
13898;DHT22;7019;50.766;4.474;2022-09-12T14:33:28;26.40;99.90
13898;DHT22;7019;50.766;4.474;2022-09-12T14:36:09;26.40;99.90
13898;DHT22;7019;50.766;4.474;2022-09-12T14:38:40;25.50;99.90
13898;DHT22;7019;50.766;4.474;2022-09-12T14:41:09;26.20;99.90
13898;DHT22;7019;50.766;4.474;2022-09-12T14:43:38;26.10;99.90
13898;DHT22;7019;50.766;4.474;2022-09-12T14:46:15;26.10;99.90
13898;DHT22;7019;50.766;4.474;2022-09-12T14:48:49;26.00;99.90
13898;DHT22;7019;50.766;4.474;2022-09-12T14:51:21;26.10;99.90
13898;DHT22;7019;50.766;4.474;2022-09-12T14:53:49;26.10;99.90
13898;DHT22;7019;50.766;4.474;2022-09-12T14:56:20;26.00;99.90
13898;DHT22;7019;50.766;4.474;2022-09-12T14:58:47;25.80;99.90
13898;DHT22;7019;50.766;4.474;2022-09-12T15:01:25;25.80;99.90
13898;DHT22;7019;50.766;4.474;2022-09-12T15:03:54;25.70;99.90
13898;DHT22;7019;50.766;4.474;2022-09-12T15:06:25;25.70;99.90
13898;DHT22;7019;50.766;4.474;2022-09-12T15:08:53;25.60;99.90
13898;DHT22;7019;50.766;4.474;2022-09-12T15:11:21;25.60;99.90
13898;DHT22;7019;50.766;4.474;2022-09-12T15:13:49;25.60;99.90
13898;DHT22;7019;50.766;4.474;2022-09-12T15:16:16;25.60;99.90
13898;DHT22;7019;50.766;4.474;2022-09-12T15:18:43;25.40;99.90
13898;DHT22;7019;50.766;4.474;2022-09-12T15:21:15;25.40;99.90
13898;DHT22;7019;50.766;4.474;2022-09-12T15:23:44;25.30;99.90
13898;DHT22;7019;50.766;4.474;2022-09-12T15:26:14;25.30;99.90
13898;DHT22;7019;50.766;4.474;2022-09-12T15:28:41;25.30;99.90
13898;DHT22;7019;50.766;4.474;2022-09-12T15:31:12;25.30;99.90
13898;DHT22;7019;50.766;4.474;2022-09-12T15:33:41;25.30;99.90
13898;DHT22;7019;50.766;4.474;2022-09-12T15:36:14;25.40;99.90
13898;DHT22;7019;50.766;4.474;2022-09-12T15:38:42;25.40;99.90
13898;DHT22;7019;50.766;4.474;2022-09-12T15:41:11;25.30;99.90
13898;DHT22;7019;50.766;4.474;2022-09-12T15:43:39;25.20;99.90
13898;DHT22;7019;50.766;4.474;2022-09-12T15:46:09;25.20;99.90
13898;DHT22;7019;50.766;4.474;2022-09-12T15:48:37;25.10;99.90
13898;DHT22;7019;50.766;4.474;2022-09-12T15:51:05;25.00;99.90
13898;DHT22;7019;50.766;4.474;2022-09-12T15:53:34;24.90;99.90
13898;DHT22;7019;50.766;4.474;2022-09-12T15:56:01;24.80;99.90
13898;DHT22;7019;50.766;4.474;2022-09-12T15:58:29;24.80;99.90
13898;DHT22;7019;50.766;4.474;2022-09-12T16:00:56;24.80;99.90
13898;DHT22;7019;50.766;4.474;2022-09-12T16:03:26;24.70;99.90
13898;DHT22;7019;50.766;4.474;2022-09-12T16:05:55;24.80;99.90
13898;DHT22;7019;50.766;4.474;2022-09-12T16:08:23;24.80;99.90
13898;DHT22;7019;50.766;4.474;2022-09-12T16:10:54;24.80;99.90
13898;DHT22;7019;50.766;4.474;2022-09-12T16:13:22;24.70;99.90
13898;DHT22;7019;50.766;4.474;2022-09-12T16:15:49;24.50;99.90
13898;DHT22;7019;50.766;4.474;2022-09-12T16:18:16;24.30;99.90
13898;DHT22;7019;50.766;4.474;2022-09-12T16:20:43;24.20;99.90
13898;DHT22;7019;50.766;4.474;2022-09-12T16:23:11;24.00;99.90
13898;DHT22;7019;50.766;4.474;2022-09-12T16:25:39;23.80;99.90
13898;DHT22;7019;50.766;4.474;2022-09-12T16:28:08;23.60;99.90
13898;DHT22;7019;50.766;4.474;2022-09-12T16:30:35;24.50;99.90
13898;DHT22;7019;50.766;4.474;2022-09-12T16:33:03;23.30;99.90
13898;DHT22;7019;50.766;4.474;2022-09-12T16:35:30;23.30;99.90
13898;DHT22;7019;50.766;4.474;2022-09-12T16:37:58;23.30;99.90
13898;DHT22;7019;50.766;4.474;2022-09-12T16:40:25;23.30;99.90
13898;DHT22;7019;50.766;4.474;2022-09-12T16:42:52;23.40;99.90